sensor_id;sensor_type;location;lat;lon;timestamp;temperature;humidity
8436;DHT22;4255;48.730;9.156;2023-01-19T00:02:24;-0.50;99.90
8436;DHT22;4255;48.730;9.156;2023-01-19T00:04:49;-0.60;99.90
8436;DHT22;4255;48.730;9.156;2023-01-19T00:07:15;-0.70;99.90
8436;DHT22;4255;48.730;9.156;2023-01-19T00:09:41;-0.60;99.90
8436;DHT22;4255;48.730;9.156;2023-01-19T00:12:07;-0.60;99.90
8436;DHT22;4255;48.730;9.156;2023-01-19T00:14:33;-0.60;99.90
8436;DHT22;4255;48.730;9.156;2023-01-19T00:16:59;-0.60;99.90
8436;DHT22;4255;48.730;9.156;2023-01-19T00:19:26;-0.60;99.90
8436;DHT22;4255;48.730;9.156;2023-01-19T00:21:52;-0.60;99.90
8436;DHT22;4255;48.730;9.156;2023-01-19T00:24:18;-0.70;99.90
8436;DHT22;4255;48.730;9.156;2023-01-19T00:26:43;-0.70;99.90
8436;DHT22;4255;48.730;9.156;2023-01-19T00:29:10;-0.70;99.90
8436;DHT22;4255;48.730;9.156;2023-01-19T00:31:36;-0.70;99.90
8436;DHT22;4255;48.730;9.156;2023-01-19T00:34:02;-0.70;99.90
8436;DHT22;4255;48.730;9.156;2023-01-19T00:36:28;-0.70;99.90
8436;DHT22;4255;48.730;9.156;2023-01-19T00:38:54;-0.60;99.90
8436;DHT22;4255;48.730;9.156;2023-01-19T00:41:19;-0.80;99.90
8436;DHT22;4255;48.730;9.156;2023-01-19T00:44:05;-0.90;99.90
8436;DHT22;4255;48.730;9.156;2023-01-19T00:46:31;-0.90;99.90
8436;DHT22;4255;48.730;9.156;2023-01-19T00:48:57;-0.80;99.90
8436;DHT22;4255;48.730;9.156;2023-01-19T00:51:23;-1.00;99.90
8436;DHT22;4255;48.730;9.156;2023-01-19T00:53:48;-1.10;99.90
8436;DHT22;4255;48.730;9.156;2023-01-19T00:56:14;-1.00;99.90
8436;DHT22;4255;48.730;9.156;2023-01-19T00:58:39;-0.90;99.90
8436;DHT22;4255;48.730;9.156;2023-01-19T01:01:05;-1.00;99.90
8436;DHT22;4255;48.730;9.156;2023-01-19T01:03:31;-1.20;99.90
8436;DHT22;4255;48.730;9.156;2023-01-19T01:05:57;-1.20;99.90
8436;DHT22;4255;48.730;9.156;2023-01-19T01:08:23;-1.20;99.90
8436;DHT22;4255;48.730;9.156;2023-01-19T01:10:49;-1.20;99.90
8436;DHT22;4255;48.730;9.156;2023-01-19T01:13:15;-1.50;99.90
8436;DHT22;4255;48.730;9.156;2023-01-19T01:15:42;-1.50;99.90
8436;DHT22;4255;48.730;9.156;2023-01-19T01:18:08;-1.50;99.90
8436;DHT22;4255;48.730;9.156;2023-01-19T01:20:33;-1.60;99.90
8436;DHT22;4255;48.730;9.156;2023-01-19T01:23:01;-1.60;99.90
8436;DHT22;4255;48.730;9.156;2023-01-19T01:25:27;-1.60;99.90
8436;DHT22;4255;48.730;9.156;2023-01-19T01:27:55;-1.60;99.90
8436;DHT22;4255;48.730;9.156;2023-01-19T01:30:22;-1.70;99.90
8436;DHT22;4255;48.730;9.156;2023-01-19T01:32:48;-1.60;99.90
8436;DHT22;4255;48.730;9.156;2023-01-19T01:35:14;-1.60;99.90
8436;DHT22;4255;48.730;9.156;2023-01-19T01:37:40;-1.50;99.90
8436;DHT22;4255;48.730;9.156;2023-01-19T01:40:09;-1.50;99.90
8436;DHT22;4255;48.730;9.156;2023-01-19T01:42:35;-1.40;99.90
8436;DHT22;4255;48.730;9.156;2023-01-19T01:45:15;-1.30;99.90
8436;DHT22;4255;48.730;9.156;2023-01-19T01:47:49;-1.30;99.90
8436;DHT22;4255;48.730;9.156;2023-01-19T01:50:24;-1.40;99.90
8436;DHT22;4255;48.730;9.156;2023-01-19T01:53:07;-1.20;99.90
8436;DHT22;4255;48.730;9.156;2023-01-19T01:55:40;-1.20;99.90
8436;DHT22;4255;48.730;9.156;2023-01-19T01:58:09;-1.30;99.90
8436;DHT22;4255;48.730;9.156;2023-01-19T02:00:37;-1.30;99.90
8436;DHT22;4255;48.730;9.156;2023-01-19T02:03:23;-1.30;99.90
8436;DHT22;4255;48.730;9.156;2023-01-19T02:05:50;-1.40;99.90
8436;DHT22;4255;48.730;9.156;2023-01-19T02:08:41;-1.30;99.90
8436;DHT22;4255;48.730;9.156;2023-01-19T02:11:27;-1.30;99.90
8436;DHT22;4255;48.730;9.156;2023-01-19T02:14:12;-1.30;99.90
8436;DHT22;4255;48.730;9.156;2023-01-19T02:16:37;-1.30;99.90
8436;DHT22;4255;48.730;9.156;2023-01-19T02:19:05;-1.20;99.90
8436;DHT22;4255;48.730;9.156;2023-01-19T02:21:57;-1.10;99.90
8436;DHT22;4255;48.730;9.156;2023-01-19T02:24:24;-1.10;99.90
8436;DHT22;4255;48.730;9.156;2023-01-19T02:26:50;-1.10;99.90
8436;DHT22;4255;48.730;9.156;2023-01-19T02:29:21;-1.00;99.90
8436;DHT22;4255;48.730;9.156;2023-01-19T02:31:47;-1.00;99.90
8436;DHT22;4255;48.730;9.156;2023-01-19T02:34:17;-1.00;99.90
8436;DHT22;4255;48.730;9.156;2023-01-19T02:36:51;-0.90;99.90
8436;DHT22;4255;48.730;9.156;2023-01-19T02:39:20;-0.90;99.90
8436;DHT22;4255;48.730;9.156;2023-01-19T02:41:51;-0.90;99.90
8436;DHT22;4255;48.730;9.156;2023-01-19T02:44:19;-1.00;99.90
8436;DHT22;4255;48.730;9.156;2023-01-19T02:46:45;-1.00;99.90
8436;DHT22;4255;48.730;9.156;2023-01-19T02:49:11;-0.90;99.90
8436;DHT22;4255;48.730;9.156;2023-01-19T02:51:38;-1.00;99.90
8436;DHT22;4255;48.730;9.156;2023-01-19T03:01:59;-1.20;99.90
8436;DHT22;4255;48.730;9.156;2023-01-19T03:07:13;-1.20;99.90
8436;DHT22;4255;48.730;9.156;2023-01-19T03:09:45;-1.30;99.90
8436;DHT22;4255;48.730;9.156;2023-01-19T03:15:08;-1.30;99.90
8436;DHT22;4255;48.730;9.156;2023-01-19T03:17:36;-1.40;99.90
8436;DHT22;4255;48.730;9.156;2023-01-19T03:20:04;-1.40;99.90
8436;DHT22;4255;48.730;9.156;2023-01-19T03:22:31;-1.50;99.90
8436;DHT22;4255;48.730;9.156;2023-01-19T03:24:58;-1.60;99.90
8436;DHT22;4255;48.730;9.156;2023-01-19T03:27:27;-1.60;99.90
8436;DHT22;4255;48.730;9.156;2023-01-19T03:30:12;-1.60;99.90
8436;DHT22;4255;48.730;9.156;2023-01-19T03:32:47;-1.70;99.90
8436;DHT22;4255;48.730;9.156;2023-01-19T03:35:15;-1.90;99.90
8436;DHT22;4255;48.730;9.156;2023-01-19T03:37:44;-1.80;99.90
8436;DHT22;4255;48.730;9.156;2023-01-19T03:40:12;-2.00;99.90
8436;DHT22;4255;48.730;9.156;2023-01-19T03:42:38;-2.10;99.90
8436;DHT22;4255;48.730;9.156;2023-01-19T03:45:06;-2.10;99.90
8436;DHT22;4255;48.730;9.156;2023-01-19T03:47:32;-2.10;99.90
8436;DHT22;4255;48.730;9.156;2023-01-19T03:50:01;-2.10;99.90
8436;DHT22;4255;48.730;9.156;2023-01-19T03:52:31;-2.20;99.90
8436;DHT22;4255;48.730;9.156;2023-01-19T03:54:59;-2.30;99.90
8436;DHT22;4255;48.730;9.156;2023-01-19T03:57:26;-2.30;99.90
8436;DHT22;4255;48.730;9.156;2023-01-19T03:59:51;-2.30;99.90
8436;DHT22;4255;48.730;9.156;2023-01-19T04:02:18;-2.30;99.90
8436;DHT22;4255;48.730;9.156;2023-01-19T04:04:43;-2.30;99.90
8436;DHT22;4255;48.730;9.156;2023-01-19T04:07:10;-2.30;99.90
8436;DHT22;4255;48.730;9.156;2023-01-19T04:09:35;-2.30;99.90
8436;DHT22;4255;48.730;9.156;2023-01-19T04:12:01;-2.30;99.90
8436;DHT22;4255;48.730;9.156;2023-01-19T04:14:28;-2.20;99.90
8436;DHT22;4255;48.730;9.156;2023-01-19T04:16:53;-2.20;99.90
8436;DHT22;4255;48.730;9.156;2023-01-19T04:19:19;-2.20;99.90
8436;DHT22;4255;48.730;9.156;2023-01-19T04:21:47;-2.10;99.90
8436;DHT22;4255;48.730;9.156;2023-01-19T04:24:13;-2.10;99.90
8436;DHT22;4255;48.730;9.156;2023-01-19T04:26:39;-2.10;99.90
8436;DHT22;4255;48.730;9.156;2023-01-19T04:29:04;-2.00;99.90
8436;DHT22;4255;48.730;9.156;2023-01-19T04:31:30;-2.00;99.90
8436;DHT22;4255;48.730;9.156;2023-01-19T04:33:56;-2.00;99.90
8436;DHT22;4255;48.730;9.156;2023-01-19T04:36:22;-2.00;99.90
8436;DHT22;4255;48.730;9.156;2023-01-19T04:38:48;-2.10;99.90
8436;DHT22;4255;48.730;9.156;2023-01-19T04:41:13;-2.10;99.90
8436;DHT22;4255;48.730;9.156;2023-01-19T04:43:39;-2.00;99.90
8436;DHT22;4255;48.730;9.156;2023-01-19T04:46:05;-2.00;99.90
8436;DHT22;4255;48.730;9.156;2023-01-19T04:48:31;-2.00;99.90
8436;DHT22;4255;48.730;9.156;2023-01-19T04:50:57;-2.10;99.90
8436;DHT22;4255;48.730;9.156;2023-01-19T04:53:22;-2.20;99.90
8436;DHT22;4255;48.730;9.156;2023-01-19T04:55:52;-2.30;99.90
8436;DHT22;4255;48.730;9.156;2023-01-19T04:58:19;-2.10;99.90
8436;DHT22;4255;48.730;9.156;2023-01-19T05:00:45;-2.20;99.90
8436;DHT22;4255;48.730;9.156;2023-01-19T05:03:10;-2.20;99.90
8436;DHT22;4255;48.730;9.156;2023-01-19T05:05:36;-2.20;99.90
8436;DHT22;4255;48.730;9.156;2023-01-19T05:08:02;-2.20;99.90
8436;DHT22;4255;48.730;9.156;2023-01-19T05:10:27;-1.90;99.90
8436;DHT22;4255;48.730;9.156;2023-01-19T05:12:53;-1.80;99.90
8436;DHT22;4255;48.730;9.156;2023-01-19T05:15:19;-1.60;99.90
8436;DHT22;4255;48.730;9.156;2023-01-19T05:17:45;-1.50;99.90
8436;DHT22;4255;48.730;9.156;2023-01-19T05:20:11;-1.50;99.90
8436;DHT22;4255;48.730;9.156;2023-01-19T05:22:37;-1.40;99.90
8436;DHT22;4255;48.730;9.156;2023-01-19T05:25:04;-1.30;99.90
8436;DHT22;4255;48.730;9.156;2023-01-19T05:27:30;-1.30;99.90
8436;DHT22;4255;48.730;9.156;2023-01-19T05:29:56;-1.30;99.90
8436;DHT22;4255;48.730;9.156;2023-01-19T05:32:22;-1.30;99.90
8436;DHT22;4255;48.730;9.156;2023-01-19T05:34:48;-1.20;99.90
8436;DHT22;4255;48.730;9.156;2023-01-19T05:37:13;-1.20;99.90
8436;DHT22;4255;48.730;9.156;2023-01-19T05:39:39;-1.30;99.90
8436;DHT22;4255;48.730;9.156;2023-01-19T05:42:04;-1.30;99.90
8436;DHT22;4255;48.730;9.156;2023-01-19T05:44:30;-1.30;99.90
8436;DHT22;4255;48.730;9.156;2023-01-19T05:46:56;-1.50;99.90
8436;DHT22;4255;48.730;9.156;2023-01-19T05:49:21;-1.60;99.90
8436;DHT22;4255;48.730;9.156;2023-01-19T05:51:47;-1.70;99.90
8436;DHT22;4255;48.730;9.156;2023-01-19T05:54:14;-1.80;99.90
8436;DHT22;4255;48.730;9.156;2023-01-19T05:56:40;-1.90;99.90
8436;DHT22;4255;48.730;9.156;2023-01-19T05:59:06;-2.00;99.90
8436;DHT22;4255;48.730;9.156;2023-01-19T06:01:32;-1.90;99.90
8436;DHT22;4255;48.730;9.156;2023-01-19T06:03:59;-1.90;99.90
8436;DHT22;4255;48.730;9.156;2023-01-19T06:06:25;-2.00;99.90
8436;DHT22;4255;48.730;9.156;2023-01-19T06:08:51;-2.10;99.90
8436;DHT22;4255;48.730;9.156;2023-01-19T06:11:16;-2.00;99.90
8436;DHT22;4255;48.730;9.156;2023-01-19T06:13:42;-2.20;99.90
8436;DHT22;4255;48.730;9.156;2023-01-19T06:16:08;-2.10;99.90
8436;DHT22;4255;48.730;9.156;2023-01-19T06:18:34;-2.00;99.90
8436;DHT22;4255;48.730;9.156;2023-01-19T06:21:07;-1.90;99.90
8436;DHT22;4255;48.730;9.156;2023-01-19T06:23:33;-1.80;99.90
8436;DHT22;4255;48.730;9.156;2023-01-19T06:25:59;-1.80;99.90
8436;DHT22;4255;48.730;9.156;2023-01-19T06:28:25;-1.80;99.90
8436;DHT22;4255;48.730;9.156;2023-01-19T06:30:52;-1.70;99.90
8436;DHT22;4255;48.730;9.156;2023-01-19T06:33:18;-1.70;99.90
8436;DHT22;4255;48.730;9.156;2023-01-19T06:35:46;-1.80;99.90
8436;DHT22;4255;48.730;9.156;2023-01-19T06:38:12;-1.80;99.90
8436;DHT22;4255;48.730;9.156;2023-01-19T06:40:39;-2.10;99.90
8436;DHT22;4255;48.730;9.156;2023-01-19T06:43:05;-2.10;99.90
8436;DHT22;4255;48.730;9.156;2023-01-19T06:45:31;-2.10;99.90
8436;DHT22;4255;48.730;9.156;2023-01-19T06:47:57;-2.00;99.90
8436;DHT22;4255;48.730;9.156;2023-01-19T06:50:22;-2.00;99.90
8436;DHT22;4255;48.730;9.156;2023-01-19T06:52:49;-2.00;99.90
8436;DHT22;4255;48.730;9.156;2023-01-19T06:55:15;-1.80;99.90
8436;DHT22;4255;48.730;9.156;2023-01-19T06:57:41;-1.70;99.90
8436;DHT22;4255;48.730;9.156;2023-01-19T07:00:07;-1.80;99.90
8436;DHT22;4255;48.730;9.156;2023-01-19T07:02:39;-1.80;99.90
8436;DHT22;4255;48.730;9.156;2023-01-19T07:05:07;-1.80;99.90
8436;DHT22;4255;48.730;9.156;2023-01-19T07:07:33;-1.80;99.90
8436;DHT22;4255;48.730;9.156;2023-01-19T07:09:59;-1.90;99.90
8436;DHT22;4255;48.730;9.156;2023-01-19T07:12:25;-1.90;99.90
8436;DHT22;4255;48.730;9.156;2023-01-19T07:14:51;-2.00;99.90
8436;DHT22;4255;48.730;9.156;2023-01-19T07:17:17;-2.00;99.90
8436;DHT22;4255;48.730;9.156;2023-01-19T07:19:42;-2.00;99.90
8436;DHT22;4255;48.730;9.156;2023-01-19T07:22:08;-2.10;99.90
8436;DHT22;4255;48.730;9.156;2023-01-19T07:24:34;-2.00;99.90
8436;DHT22;4255;48.730;9.156;2023-01-19T07:27:00;-2.00;99.90
8436;DHT22;4255;48.730;9.156;2023-01-19T07:29:25;-1.90;99.90
8436;DHT22;4255;48.730;9.156;2023-01-19T07:31:51;-1.90;99.90
8436;DHT22;4255;48.730;9.156;2023-01-19T07:34:19;-1.80;99.90
8436;DHT22;4255;48.730;9.156;2023-01-19T07:36:45;-1.80;99.90
8436;DHT22;4255;48.730;9.156;2023-01-19T07:39:11;-1.80;99.90
8436;DHT22;4255;48.730;9.156;2023-01-19T07:41:37;-1.80;99.90
8436;DHT22;4255;48.730;9.156;2023-01-19T07:44:03;-1.80;99.90
8436;DHT22;4255;48.730;9.156;2023-01-19T07:46:29;-1.70;99.90
8436;DHT22;4255;48.730;9.156;2023-01-19T07:48:54;-1.90;99.90
8436;DHT22;4255;48.730;9.156;2023-01-19T07:51:20;-1.90;99.90
8436;DHT22;4255;48.730;9.156;2023-01-19T07:53:48;-2.00;99.90
8436;DHT22;4255;48.730;9.156;2023-01-19T07:56:14;-2.00;99.90
8436;DHT22;4255;48.730;9.156;2023-01-19T07:58:39;-2.10;99.90
8436;DHT22;4255;48.730;9.156;2023-01-19T08:01:10;-2.10;99.90
8436;DHT22;4255;48.730;9.156;2023-01-19T08:03:37;-1.90;99.90
8436;DHT22;4255;48.730;9.156;2023-01-19T08:06:03;-1.60;99.90
8436;DHT22;4255;48.730;9.156;2023-01-19T08:08:30;-1.40;99.90
8436;DHT22;4255;48.730;9.156;2023-01-19T08:10:56;-1.40;99.90
8436;DHT22;4255;48.730;9.156;2023-01-19T08:13:22;-1.40;99.90
8436;DHT22;4255;48.730;9.156;2023-01-19T08:15:49;-1.20;99.90
8436;DHT22;4255;48.730;9.156;2023-01-19T08:18:15;-1.10;99.90
8436;DHT22;4255;48.730;9.156;2023-01-19T08:20:41;-1.00;99.90
8436;DHT22;4255;48.730;9.156;2023-01-19T08:23:07;-0.90;99.90
8436;DHT22;4255;48.730;9.156;2023-01-19T08:25:38;-1.00;99.90
8436;DHT22;4255;48.730;9.156;2023-01-19T08:28:06;-0.90;99.90
8436;DHT22;4255;48.730;9.156;2023-01-19T08:30:32;-1.00;99.90
8436;DHT22;4255;48.730;9.156;2023-01-19T08:32:58;-0.80;99.90
8436;DHT22;4255;48.730;9.156;2023-01-19T08:35:38;-0.80;99.90
8436;DHT22;4255;48.730;9.156;2023-01-19T08:38:05;-0.80;99.90
8436;DHT22;4255;48.730;9.156;2023-01-19T08:40:33;-0.70;99.90
8436;DHT22;4255;48.730;9.156;2023-01-19T08:43:04;-0.70;99.90
8436;DHT22;4255;48.730;9.156;2023-01-19T08:45:34;-0.70;99.90
8436;DHT22;4255;48.730;9.156;2023-01-19T08:48:00;-0.60;99.90
8436;DHT22;4255;48.730;9.156;2023-01-19T08:50:30;-0.50;99.90
8436;DHT22;4255;48.730;9.156;2023-01-19T08:52:57;-0.20;99.90
8436;DHT22;4255;48.730;9.156;2023-01-19T08:55:24;-0.20;99.90
8436;DHT22;4255;48.730;9.156;2023-01-19T08:57:51;-0.10;99.90
8436;DHT22;4255;48.730;9.156;2023-01-19T09:00:18;0.00;99.90
8436;DHT22;4255;48.730;9.156;2023-01-19T09:02:44;0.00;99.90
8436;DHT22;4255;48.730;9.156;2023-01-19T09:05:10;0.10;99.90
8436;DHT22;4255;48.730;9.156;2023-01-19T09:07:36;0.30;99.90
8436;DHT22;4255;48.730;9.156;2023-01-19T09:10:03;0.50;99.90
8436;DHT22;4255;48.730;9.156;2023-01-19T09:12:29;0.50;99.90
8436;DHT22;4255;48.730;9.156;2023-01-19T09:14:55;0.60;99.90
8436;DHT22;4255;48.730;9.156;2023-01-19T09:17:20;0.60;99.90
8436;DHT22;4255;48.730;9.156;2023-01-19T09:19:46;0.70;99.90
8436;DHT22;4255;48.730;9.156;2023-01-19T09:22:11;0.70;99.90
8436;DHT22;4255;48.730;9.156;2023-01-19T09:24:37;0.70;99.90
8436;DHT22;4255;48.730;9.156;2023-01-19T09:27:03;0.90;99.90
8436;DHT22;4255;48.730;9.156;2023-01-19T09:29:28;1.10;99.90
8436;DHT22;4255;48.730;9.156;2023-01-19T09:31:54;1.30;99.90
8436;DHT22;4255;48.730;9.156;2023-01-19T09:34:20;1.50;99.90
8436;DHT22;4255;48.730;9.156;2023-01-19T09:36:47;1.60;99.90
8436;DHT22;4255;48.730;9.156;2023-01-19T09:39:12;1.50;99.90
8436;DHT22;4255;48.730;9.156;2023-01-19T09:41:41;1.30;99.90
8436;DHT22;4255;48.730;9.156;2023-01-19T09:44:16;1.10;99.90
8436;DHT22;4255;48.730;9.156;2023-01-19T09:46:43;1.00;99.90
8436;DHT22;4255;48.730;9.156;2023-01-19T09:49:17;0.90;99.90
8436;DHT22;4255;48.730;9.156;2023-01-19T09:51:47;1.10;99.90
8436;DHT22;4255;48.730;9.156;2023-01-19T09:54:30;1.10;99.90
8436;DHT22;4255;48.730;9.156;2023-01-19T09:57:00;1.40;99.90
8436;DHT22;4255;48.730;9.156;2023-01-19T09:59:30;1.40;99.90
8436;DHT22;4255;48.730;9.156;2023-01-19T10:07:49;1.90;99.90
8436;DHT22;4255;48.730;9.156;2023-01-19T10:10:27;1.70;99.90
8436;DHT22;4255;48.730;9.156;2023-01-19T10:13:17;1.60;99.90
8436;DHT22;4255;48.730;9.156;2023-01-19T10:26:24;1.20;99.90
8436;DHT22;4255;48.730;9.156;2023-01-19T10:29:00;1.20;99.90
8436;DHT22;4255;48.730;9.156;2023-01-19T10:31:26;1.20;99.90
8436;DHT22;4255;48.730;9.156;2023-01-19T10:33:52;1.30;99.90
8436;DHT22;4255;48.730;9.156;2023-01-19T10:36:27;1.40;99.90
8436;DHT22;4255;48.730;9.156;2023-01-19T10:38:54;1.60;99.90
8436;DHT22;4255;48.730;9.156;2023-01-19T10:41:37;1.60;99.90
8436;DHT22;4255;48.730;9.156;2023-01-19T10:44:04;1.50;99.90
8436;DHT22;4255;48.730;9.156;2023-01-19T10:46:45;1.50;99.90
8436;DHT22;4255;48.730;9.156;2023-01-19T10:51:52;2.10;99.90
8436;DHT22;4255;48.730;9.156;2023-01-19T10:54:19;2.30;99.90
8436;DHT22;4255;48.730;9.156;2023-01-19T10:57:03;2.30;99.90
8436;DHT22;4255;48.730;9.156;2023-01-19T11:02:26;2.20;99.90
8436;DHT22;4255;48.730;9.156;2023-01-19T11:05:42;2.30;99.90
8436;DHT22;4255;48.730;9.156;2023-01-19T11:07:42;2.20;99.90
8436;DHT22;4255;48.730;9.156;2023-01-19T11:15:31;2.40;99.90
8436;DHT22;4255;48.730;9.156;2023-01-19T11:17:57;2.50;99.90
8436;DHT22;4255;48.730;9.156;2023-01-19T11:20:28;2.70;99.90
8436;DHT22;4255;48.730;9.156;2023-01-19T11:23:27;2.60;99.90
8436;DHT22;4255;48.730;9.156;2023-01-19T11:25:58;2.80;99.90
8436;DHT22;4255;48.730;9.156;2023-01-19T11:28:38;2.70;99.90
8436;DHT22;4255;48.730;9.156;2023-01-19T11:36:26;2.60;99.90
8436;DHT22;4255;48.730;9.156;2023-01-19T11:38:54;2.60;99.90
8436;DHT22;4255;48.730;9.156;2023-01-19T11:41:32;2.70;99.90
8436;DHT22;4255;48.730;9.156;2023-01-19T11:44:15;2.70;99.90
8436;DHT22;4255;48.730;9.156;2023-01-19T11:46:44;2.70;99.90
8436;DHT22;4255;48.730;9.156;2023-01-19T11:49:26;2.80;99.90
8436;DHT22;4255;48.730;9.156;2023-01-19T11:52:44;3.00;99.90
8436;DHT22;4255;48.730;9.156;2023-01-19T11:55:24;3.10;99.90
8436;DHT22;4255;48.730;9.156;2023-01-19T11:57:49;3.20;99.90
8436;DHT22;4255;48.730;9.156;2023-01-19T12:00:45;3.00;99.90
8436;DHT22;4255;48.730;9.156;2023-01-19T12:03:32;2.80;99.90
8436;DHT22;4255;48.730;9.156;2023-01-19T12:06:22;2.70;99.90
8436;DHT22;4255;48.730;9.156;2023-01-19T12:09:11;2.80;99.90
8436;DHT22;4255;48.730;9.156;2023-01-19T12:11:41;2.70;99.90
8436;DHT22;4255;48.730;9.156;2023-01-19T12:17:11;2.80;99.90
8436;DHT22;4255;48.730;9.156;2023-01-19T12:19:45;2.80;99.90
8436;DHT22;4255;48.730;9.156;2023-01-19T12:22:15;2.90;99.90
8436;DHT22;4255;48.730;9.156;2023-01-19T12:24:51;3.00;99.90
8436;DHT22;4255;48.730;9.156;2023-01-19T12:29:59;3.00;99.90
8436;DHT22;4255;48.730;9.156;2023-01-19T12:32:33;2.90;99.90
8436;DHT22;4255;48.730;9.156;2023-01-19T12:35:01;2.80;99.90
8436;DHT22;4255;48.730;9.156;2023-01-19T12:39:54;2.70;99.90
8436;DHT22;4255;48.730;9.156;2023-01-19T12:42:21;2.70;99.90
8436;DHT22;4255;48.730;9.156;2023-01-19T12:44:47;2.70;99.90
8436;DHT22;4255;48.730;9.156;2023-01-19T12:47:17;2.60;99.90
8436;DHT22;4255;48.730;9.156;2023-01-19T12:49:45;2.60;99.90
8436;DHT22;4255;48.730;9.156;2023-01-19T12:52:21;2.70;99.90
8436;DHT22;4255;48.730;9.156;2023-01-19T12:54:54;2.80;99.90
8436;DHT22;4255;48.730;9.156;2023-01-19T12:57:36;2.80;99.90
8436;DHT22;4255;48.730;9.156;2023-01-19T13:02:56;2.80;99.90
8436;DHT22;4255;48.730;9.156;2023-01-19T13:05:46;2.90;99.90
8436;DHT22;4255;48.730;9.156;2023-01-19T13:21:36;3.30;99.90
8436;DHT22;4255;48.730;9.156;2023-01-19T13:24:07;3.30;99.90
8436;DHT22;4255;48.730;9.156;2023-01-19T13:26:35;3.10;99.90
8436;DHT22;4255;48.730;9.156;2023-01-19T13:29:08;3.10;99.90
8436;DHT22;4255;48.730;9.156;2023-01-19T13:31:37;3.20;99.90
8436;DHT22;4255;48.730;9.156;2023-01-19T13:34:13;3.20;99.90
8436;DHT22;4255;48.730;9.156;2023-01-19T13:36:44;3.40;99.90
8436;DHT22;4255;48.730;9.156;2023-01-19T13:39:26;3.20;99.90
8436;DHT22;4255;48.730;9.156;2023-01-19T13:41:54;3.20;99.90
8436;DHT22;4255;48.730;9.156;2023-01-19T13:44:29;2.90;99.90
8436;DHT22;4255;48.730;9.156;2023-01-19T13:46:58;2.90;99.90
8436;DHT22;4255;48.730;9.156;2023-01-19T13:49:34;2.90;99.90
8436;DHT22;4255;48.730;9.156;2023-01-19T13:54:55;2.90;99.90
8436;DHT22;4255;48.730;9.156;2023-01-19T13:57:23;2.80;99.90
8436;DHT22;4255;48.730;9.156;2023-01-19T14:02:40;2.90;99.90
8436;DHT22;4255;48.730;9.156;2023-01-19T14:05:14;2.90;99.90
8436;DHT22;4255;48.730;9.156;2023-01-19T14:07:40;3.00;99.90
8436;DHT22;4255;48.730;9.156;2023-01-19T14:10:11;3.00;99.90
8436;DHT22;4255;48.730;9.156;2023-01-19T14:12:37;3.00;99.90
8436;DHT22;4255;48.730;9.156;2023-01-19T14:15:03;2.90;99.90
8436;DHT22;4255;48.730;9.156;2023-01-19T14:17:35;2.90;99.90
8436;DHT22;4255;48.730;9.156;2023-01-19T14:20:00;3.00;99.90
8436;DHT22;4255;48.730;9.156;2023-01-19T14:22:41;3.10;99.90
8436;DHT22;4255;48.730;9.156;2023-01-19T14:25:27;3.30;99.90
8436;DHT22;4255;48.730;9.156;2023-01-19T14:31:01;3.70;99.90
8436;DHT22;4255;48.730;9.156;2023-01-19T14:33:41;3.80;99.90
8436;DHT22;4255;48.730;9.156;2023-01-19T14:38:46;3.80;99.90
8436;DHT22;4255;48.730;9.156;2023-01-19T14:41:35;3.80;99.90
8436;DHT22;4255;48.730;9.156;2023-01-19T14:44:09;3.90;99.90
8436;DHT22;4255;48.730;9.156;2023-01-19T14:46:36;3.70;99.90
8436;DHT22;4255;48.730;9.156;2023-01-19T14:49:03;3.80;99.90
8436;DHT22;4255;48.730;9.156;2023-01-19T14:51:30;3.90;99.90
8436;DHT22;4255;48.730;9.156;2023-01-19T14:53:58;4.00;99.90
8436;DHT22;4255;48.730;9.156;2023-01-19T14:56:30;4.20;99.90
8436;DHT22;4255;48.730;9.156;2023-01-19T14:58:57;4.20;99.90
8436;DHT22;4255;48.730;9.156;2023-01-19T15:01:24;4.30;99.90
8436;DHT22;4255;48.730;9.156;2023-01-19T15:03:53;4.30;99.90
8436;DHT22;4255;48.730;9.156;2023-01-19T15:06:22;4.30;99.90
8436;DHT22;4255;48.730;9.156;2023-01-19T15:08:49;4.20;99.90
8436;DHT22;4255;48.730;9.156;2023-01-19T15:13:42;4.20;99.90
8436;DHT22;4255;48.730;9.156;2023-01-19T15:16:08;4.20;99.90
8436;DHT22;4255;48.730;9.156;2023-01-19T15:18:34;4.00;99.90
8436;DHT22;4255;48.730;9.156;2023-01-19T15:21:00;4.00;99.90
8436;DHT22;4255;48.730;9.156;2023-01-19T15:23:33;3.70;99.90
8436;DHT22;4255;48.730;9.156;2023-01-19T15:26:01;3.80;99.90
8436;DHT22;4255;48.730;9.156;2023-01-19T15:28:26;3.70;99.90
8436;DHT22;4255;48.730;9.156;2023-01-19T15:30:52;3.80;99.90
8436;DHT22;4255;48.730;9.156;2023-01-19T15:33:23;3.70;99.90
8436;DHT22;4255;48.730;9.156;2023-01-19T15:35:49;3.70;99.90
8436;DHT22;4255;48.730;9.156;2023-01-19T15:38:15;3.70;99.90
8436;DHT22;4255;48.730;9.156;2023-01-19T15:40:40;3.60;99.90
8436;DHT22;4255;48.730;9.156;2023-01-19T15:43:09;3.40;99.90
8436;DHT22;4255;48.730;9.156;2023-01-19T15:48:09;2.90;99.90
8436;DHT22;4255;48.730;9.156;2023-01-19T15:50:38;2.80;99.90
8436;DHT22;4255;48.730;9.156;2023-01-19T15:53:05;2.90;99.90
8436;DHT22;4255;48.730;9.156;2023-01-19T15:55:30;3.00;99.90
8436;DHT22;4255;48.730;9.156;2023-01-19T15:57:56;3.00;99.90
8436;DHT22;4255;48.730;9.156;2023-01-19T16:00:27;3.00;99.90
8436;DHT22;4255;48.730;9.156;2023-01-19T16:02:52;3.10;99.90
8436;DHT22;4255;48.730;9.156;2023-01-19T16:05:18;3.20;99.90
8436;DHT22;4255;48.730;9.156;2023-01-19T16:07:43;3.20;99.90
8436;DHT22;4255;48.730;9.156;2023-01-19T16:10:09;3.20;99.90
8436;DHT22;4255;48.730;9.156;2023-01-19T16:12:37;3.20;99.90
8436;DHT22;4255;48.730;9.156;2023-01-19T16:15:03;3.20;99.90
8436;DHT22;4255;48.730;9.156;2023-01-19T16:17:28;3.30;99.90
8436;DHT22;4255;48.730;9.156;2023-01-19T16:19:54;3.50;99.90
8436;DHT22;4255;48.730;9.156;2023-01-19T16:22:20;3.60;99.90
8436;DHT22;4255;48.730;9.156;2023-01-19T16:24:45;3.70;99.90
8436;DHT22;4255;48.730;9.156;2023-01-19T16:27:11;3.70;99.90
8436;DHT22;4255;48.730;9.156;2023-01-19T16:29:36;3.70;99.90
8436;DHT22;4255;48.730;9.156;2023-01-19T16:32:02;3.80;99.90
8436;DHT22;4255;48.730;9.156;2023-01-19T16:34:27;3.80;99.90
8436;DHT22;4255;48.730;9.156;2023-01-19T16:36:53;3.70;99.90
8436;DHT22;4255;48.730;9.156;2023-01-19T16:39:19;3.50;99.90
8436;DHT22;4255;48.730;9.156;2023-01-19T16:41:44;3.30;99.90
8436;DHT22;4255;48.730;9.156;2023-01-19T16:44:11;3.30;99.90
8436;DHT22;4255;48.730;9.156;2023-01-19T16:46:42;3.10;99.90
8436;DHT22;4255;48.730;9.156;2023-01-19T16:49:23;3.00;99.90
8436;DHT22;4255;48.730;9.156;2023-01-19T16:51:50;3.00;99.90
8436;DHT22;4255;48.730;9.156;2023-01-19T16:54:18;3.10;99.90
8436;DHT22;4255;48.730;9.156;2023-01-19T16:56:45;3.10;99.90
8436;DHT22;4255;48.730;9.156;2023-01-19T16:59:13;3.10;99.90
8436;DHT22;4255;48.730;9.156;2023-01-19T17:01:39;3.20;99.90
8436;DHT22;4255;48.730;9.156;2023-01-19T17:04:05;3.20;99.90
8436;DHT22;4255;48.730;9.156;2023-01-19T17:06:31;3.20;99.90
8436;DHT22;4255;48.730;9.156;2023-01-19T17:08:57;3.00;99.90
8436;DHT22;4255;48.730;9.156;2023-01-19T17:11:27;3.10;99.90
8436;DHT22;4255;48.730;9.156;2023-01-19T17:13:58;3.20;99.90
8436;DHT22;4255;48.730;9.156;2023-01-19T17:16:26;3.30;99.90
8436;DHT22;4255;48.730;9.156;2023-01-19T17:18:52;3.40;99.90
8436;DHT22;4255;48.730;9.156;2023-01-19T17:21:18;3.40;99.90
8436;DHT22;4255;48.730;9.156;2023-01-19T17:23:46;3.40;99.90
8436;DHT22;4255;48.730;9.156;2023-01-19T17:26:13;3.50;99.90
8436;DHT22;4255;48.730;9.156;2023-01-19T17:28:39;3.40;99.90
8436;DHT22;4255;48.730;9.156;2023-01-19T17:31:10;3.40;99.90
8436;DHT22;4255;48.730;9.156;2023-01-19T17:33:36;3.40;99.90
8436;DHT22;4255;48.730;9.156;2023-01-19T17:36:04;3.40;99.90
8436;DHT22;4255;48.730;9.156;2023-01-19T17:38:30;3.40;99.90
8436;DHT22;4255;48.730;9.156;2023-01-19T17:40:55;3.50;99.90
8436;DHT22;4255;48.730;9.156;2023-01-19T17:43:21;3.50;99.90
8436;DHT22;4255;48.730;9.156;2023-01-19T17:45:47;3.60;99.90
8436;DHT22;4255;48.730;9.156;2023-01-19T17:48:12;3.60;99.90